Antes Fort, Pennsylvania
Current Conditions -  °F | °C
As of 4:54 PM on Saturday 25 Oct 2014 (Local Time) from KIPT Reporting Station
Broken Clouds Broken Clouds  
Wind Chill: 69°   Ceiling: 6500
Heat Index: 69°   Visibility: 10mi
Dew Point: 44°   Wind: 14mph
Humidity: 40%   Direction: 260°W
Pressure: 29.65"   Gusts: NA
Location:  41.19°N, 77.22°W
Report Text: KIPT 252054Z 26012KT 10SM BKN065 21/07 A2965 RMK AO2 SLP042 T02060067 56027
Loading
Personal Weather Stations






























Interactive Weather Map
Tropical Storm Tracking
New forecast layout! Learn more

10-Day Weather Forecast

Advertisements
Track Severe Weather on mobile